Time;durP1;ratioP1;P1;durP2;ratioP2;P2;SDS_P1;SDS_P2;PMS_P1;PMS_P2;Temp;Humidity;BMP_temperature;BMP_pressure;BME280_temperature;BME280_humidity;BME280_pressure;Samples;Min_cycle;Max_cycle;Signal;HPM_P1;HPM_P2
2021/09/11 00:07:56;;;;;;;;;;;;;;;;;;;;;
2021/09/11 00:18:32;;;;;;;;;;;;;;;;;;;;;
2021/09/11 00:21:51;;;;;;;;;;;;;;;15.45;72.28;92914.00;4810212;29;20115;-94
2021/09/11 00:25:14;;;;;;;;;;;;;;;;;;;;;
2021/09/11 00:28:23;;;;;;;6.70;4.18;;;;;;;15.11;73.01;92867.94;4849423;29;20054;-94
2021/09/11 00:31:09;;;;;;;6.47;3.75;;;;;;;15.08;72.79;92873.81;4843888;29;20057;-93
2021/09/11 00:34:18;;;;;;;6.03;3.80;;;;;;;15.40;72.74;92917.53;4837808;29;20046;-94
2021/09/11 00:37:16;;;;;;;;;;;;;;;;;;;;;
2021/09/11 00:40:32;;;;;;;;;;;;;;;;;;;;;
2021/09/11 00:44:10;;;;;;;;;;;;;;;;;;;;;
2021/09/11 00:46:59;;;;;;;;;;;;;;;;;;;;;
2021/09/11 00:57:18;;;;;;;7.00;3.97;;;;;;;15.04;73.74;92859.69;4850437;29;20065;-93
2021/09/11 01:00:36;;;;;;;7.28;3.85;;;;;;;15.05;73.72;92863.88;4839127;29;20053;-94
2021/09/11 01:07:07;;;;;;;7.45;4.25;;;;;;;15.07;73.67;92863.59;4856108;29;20232;-94
2021/09/11 01:09:56;;;;;;;8.05;4.10;;;;;;;15.40;73.71;92908.81;4860773;29;20140;-93
2021/09/11 01:23:38;;;;;;;;;;;;;;;;;;;;;
2021/09/11 01:27:12;;;;;;;7.35;4.75;;;;;;;14.99;73.36;92863.25;4844149;29;20050;-93
2021/09/11 01:30:48;;;;;;;10.20;4.70;;;;;;;15.28;73.08;92900.72;4741975;30;20502;-94
2021/09/11 01:34:10;;;;;;;;;;;;;;;;;;;;;
2021/09/11 01:40:54;;;;;;;;;;;;;;;;;;;;;
2021/09/11 01:44:01;;;;;;;;;;;;;;;;;;;;;
2021/09/11 01:47:33;;;;;;;;;;;;;;;;;;;;;
2021/09/11 01:50:30;;;;;;;6.32;4.22;;;;;;;15.34;72.89;92912.72;4858106;29;20050;-95
2021/09/11 01:53:57;;;;;;;;;;;;;;;;;;;;;
2021/09/11 01:57:11;;;;;;;6.97;4.10;;;;;;;15.33;72.76;92908.50;4831464;29;20544;-94
2021/09/11 02:00:45;;;;;;;;;;;;;;;;;;;;;
2021/09/11 02:07:45;;;;;;;;;;;;;;;;;;;;;
2021/09/11 02:10:44;;;;;;;6.47;4.07;;;;;;;15.24;72.79;92881.31;4839392;29;20042;-94
2021/09/11 02:14:07;;;;;;;;;;;;;;;;;;;;;
2021/09/11 02:20:28;;;;;;;6.65;4.60;;;;;;;14.97;73.16;92846.16;4860239;29;20516;-94
2021/09/11 02:23:48;;;;;;;6.00;4.05;;;;;;;14.96;73.05;92849.88;4836424;29;20056;-94
2021/09/11 02:27:03;;;;;;;;;;;;;;;;;;;;;
2021/09/11 02:30:06;;;;;;;6.20;3.80;;;;;;;15.25;72.17;92891.56;4848324;29;20286;-94
2021/09/11 02:33:14;;;;;;;;;;;;;;;;;;;;;
2021/09/11 02:36:28;;;;;;;;;;;;;;;;;;;;;
2021/09/11 02:39:46;;;;;;;4.93;3.20;;;;;;;14.98;72.42;92850.38;4860193;29;20480;-94
2021/09/11 02:43:20;;;;;;;;;;;;;;;;;;;;;
2021/09/11 02:46:37;;;;;;;;;;;;;;;;;;;;;
2021/09/11 02:53:45;;;;;;;5.35;3.65;;;;;;;14.93;72.38;92840.72;4848813;29;20045;-94
2021/09/11 02:57:05;;;;;;;6.70;3.83;;;;;;;15.11;71.88;92851.34;4871168;29;20057;-95
2021/09/11 03:00:03;;;;;;;5.07;3.45;;;;;;;15.07;71.80;92843.25;4848286;29;20041;-93
2021/09/11 03:03:04;;;;;;;;;;;;;;;;;;;;;
2021/09/11 03:05:58;;;;;;;5.85;3.38;;;;;;;15.34;71.45;92881.81;4859936;29;20061;-94
2021/09/11 03:09:18;;;;;;;8.13;4.75;;;;;;;14.95;71.30;92821.97;4856825;29;20512;-94
2021/09/11 03:12:53;;;;;;;;;;;;;;;;;;;;;
2021/09/11 03:16:03;;;;;;;5.55;3.40;;;;;;;15.29;71.69;92871.41;4841920;29;20351;-94
2021/09/11 03:22:44;;;;;;;5.88;3.67;;;;;;;15.28;71.63;92869.09;4824217;29;20050;-94
2021/09/11 03:25:53;;;;;;;6.80;4.07;;;;;;;14.94;71.63;92823.06;4836227;29;20058;-94
2021/09/11 03:29:51;;;;;;;;;;;;;;;;;;;;;
2021/09/11 03:33:09;;;;;;;10.48;4.10;;;;;;;15.19;72.16;92861.13;4840462;29;20171;-94
2021/09/11 03:36:19;;;;;;;7.13;3.60;;;;;;;14.86;72.62;92813.25;4840527;29;20053;-95
2021/09/11 03:43:30;;;;;;;6.63;4.22;;;;;;;14.77;73.33;92811.38;4842622;29;20050;-95
2021/09/11 03:46:35;;;;;;;8.32;4.22;;;;;;;14.92;72.93;92835.75;4720675;30;20066;-94
2021/09/11 03:53:28;;;;;;;;;;;;;;;;;;;;;
2021/09/11 03:57:04;;;;;;;6.80;3.78;;;;;;;14.73;72.86;92820.94;4780207;30;20063;-95
2021/09/11 03:59:51;;;;;;;5.63;4.00;;;;;;;14.76;73.06;92822.19;4773467;30;20051;-94
2021/09/11 04:03:16;;;;;;;;;;;;;;;;;;;;;
2021/09/11 04:06:40;;;;;;;6.05;3.42;;;;;;;14.75;73.14;92831.97;4785994;30;20441;-94
2021/09/11 04:10:26;;;;;;;;;;;;;;;;;;;;;
2021/09/11 04:13:23;;;;;;;7.22;3.90;;;;;;;14.64;73.28;92828.03;4777481;29;20356;-95
2021/09/11 04:20:25;;;;;;;4.72;3.22;;;;;;;14.69;73.33;92833.16;4843417;29;20133;-94
2021/09/11 04:23:45;;;;;;;5.25;3.78;;;;;;;14.73;73.31;92836.75;4859771;29;20064;-95
2021/09/11 04:27:06;;;;;;;;;;;;;;;;;;;;;
2021/09/11 04:33:58;;;;;;;;;;;;;;;;;;;;;
2021/09/11 04:37:42;;;;;;;;;;;;;;;;;;;;;
2021/09/11 04:44:32;;;;;;;8.15;4.35;;;;;;;14.93;73.41;92875.00;4831889;29;20041;-94
2021/09/11 04:51:20;;;;;;;6.38;3.83;;;;;;;14.92;73.33;92868.16;4773404;30;20780;-94
2021/09/11 04:54:35;;;;;;;;;;;;;;;;;;;;;
2021/09/11 05:00:58;;;;;;;6.72;3.70;;;;;;;14.55;73.65;92821.94;4841234;29;20064;-93
2021/09/11 05:07:29;;;;;;;;;;;;;;;;;;;;;
2021/09/11 05:10:45;;;;;;;5.53;3.58;;;;;;;14.75;73.11;92844.38;4839724;29;20050;-94
2021/09/11 05:14:09;;;;;;;5.75;3.95;;;;;;;14.62;73.12;92819.66;4835047;29;20053;-95
2021/09/11 05:17:11;;;;;;;7.53;4.47;;;;;;;14.98;73.60;92876.72;4827010;29;20148;-94
2021/09/11 05:20:17;;;;;;;6.75;4.00;;;;;;;14.68;73.14;92834.25;4843054;29;20044;-94
2021/09/11 05:23:09;;;;;;;;;;;;;;;;;;;;;
2021/09/11 05:29:05;;;;;;;8.70;4.50;;;;;;;14.59;73.49;92825.53;4804294;29;20106;-93
2021/09/11 05:31:50;;;;;;;6.65;3.60;;;;;;;14.63;73.78;92837.00;4839788;29;20080;-93
2021/09/11 05:35:11;;;;;;;5.45;3.88;;;;;;;14.98;74.02;92880.13;4826877;29;20058;-93
2021/09/11 05:38:23;;;;;;;7.10;4.10;;;;;;;15.02;73.66;92882.16;4838518;29;20061;-94
2021/09/11 05:45:35;;;;;;;;;;;;;;;;;;;;;
2021/09/11 05:48:14;;;;;;;6.85;3.95;;;;;;;14.71;74.04;92846.81;4844773;29;20049;-92
2021/09/11 05:50:59;;;;;;;5.80;4.28;;;;;;;14.75;73.60;92849.66;4840844;29;20068;-93
2021/09/11 05:56:45;;;;;;;;;;;;;;;;;;;;;
2021/09/11 05:59:56;;;;;;;10.52;4.30;;;;;;;14.94;73.53;92852.03;4852114;29;20512;-92
2021/09/11 06:03:12;;;;;;;;;;;;;;;;;;;;;
2021/09/11 06:09:56;;;;;;;6.20;3.75;;;;;;;15.11;72.50;92833.66;4850159;29;20063;-92
2021/09/11 06:12:55;;;;;;;6.10;3.47;;;;;;;15.45;72.68;92871.78;4839768;29;20038;-93
2021/09/11 06:16:24;;;;;;;6.95;4.60;;;;;;;15.74;71.42;92859.94;4841439;29;20495;-93
2021/09/11 06:19:32;;;;;;;7.15;4.00;;;;;;;16.42;68.67;92847.78;4837768;29;20412;-94
2021/09/11 06:26:41;;;;;;;;;;;;;;;;;;;;;
2021/09/11 06:29:37;;;;;;;6.28;3.60;;;;;;;16.41;69.42;92895.66;4837053;29;20057;-92
2021/09/11 06:32:36;;;;;;;;;;;;;;;;;;;;;
2021/09/11 06:39:18;;;;;;;5.43;3.38;;;;;;;16.34;68.71;92837.25;4833378;29;20050;-93
2021/09/11 06:42:17;;;;;;;;;;;;;;;;;;;;;
2021/09/11 06:45:14;;;;;;;7.75;3.67;;;;;;;16.69;67.83;92840.59;4858176;29;20136;-93
2021/09/11 06:48:35;;;;;;;;;;;;;;;;;;;;;
2021/09/11 06:51:47;;;;;;;;;;;;;;;;;;;;;
2021/09/11 06:54:34;;;;;;;;;;;;;;;;;;;;;
2021/09/11 06:57:46;;;;;;;;;;;;;;;;;;;;;
2021/09/11 07:03:52;;;;;;;7.43;4.43;;;;;;;23.41;46.37;92864.97;4842176;29;20053;-94
2021/09/11 07:19:21;;;;;;;;;;;;;;;;;;;;;
2021/09/11 09:01:14;;;;;;;5.80;3.83;;;;;;;20.84;61.65;92892.19;5072000;28;20744;-79
2021/09/11 09:03:42;;;;;;;5.88;3.92;;;;;;;20.36;63.90;92886.69;5057786;28;20037;-79
2021/09/11 09:06:12;;;;;;;6.80;4.38;;;;;;;20.82;62.32;92889.84;5059708;28;20605;-80
2021/09/11 09:08:38;;;;;;;7.40;4.28;;;;;;;20.86;62.25;92882.75;5074969;28;20036;-79
2021/09/11 09:11:27;;;;;;;7.75;4.45;;;;;;;20.55;62.87;92888.72;5074145;28;20047;-79
2021/09/11 09:14:05;;;;;;;6.43;4.07;;;;;;;20.10;63.37;92893.16;5064101;28;20028;-78
2021/09/11 09:16:39;;;;;;;7.55;4.00;;;;;;;20.72;61.18;92901.00;5051974;28;20033;-79
2021/09/11 09:19:14;;;;;;;5.75;3.20;;;;;;;20.93;60.24;92900.78;5070470;28;20092;-80
2021/09/11 09:21:41;;;;;;;8.07;4.57;;;;;;;21.27;58.98;92896.69;5068054;28;20041;-79
2021/09/11 09:24:09;;;;;;;6.53;3.83;;;;;;;21.24;59.46;92894.72;5065961;28;20037;-77
2021/09/11 09:27:08;;;;;;;6.88;3.83;;;;;;;22.25;51.90;92892.53;5069692;28;20037;-79
2021/09/11 09:29:36;;;;;;;6.70;3.80;;;;;;;22.68;54.42;92887.31;5055425;28;20045;-79
2021/09/11 09:32:02;;;;;;;5.72;3.70;;;;;;;22.70;53.40;92887.69;5071929;28;20140;-79
2021/09/11 09:34:41;;;;;;;6.95;4.90;;;;;;;21.99;52.00;92893.06;5069445;28;20032;-78
2021/09/11 09:37:15;;;;;;;7.43;4.03;;;;;;;22.15;51.36;92888.47;5071126;28;20037;-79
2021/09/11 09:39:47;;;;;;;8.70;4.95;;;;;;;22.86;49.19;92881.16;5059644;28;20243;-79
2021/09/11 09:42:15;;;;;;;6.63;4.05;;;;;;;23.05;49.78;92885.72;5050686;28;20037;-79
2021/09/11 09:44:49;;;;;;;8.80;4.38;;;;;;;22.72;53.47;92878.25;5050467;28;20029;-79
2021/09/11 09:47:22;;;;;;;6.47;4.10;;;;;;;23.02;50.96;92881.09;5064403;28;20045;-77
2021/09/11 09:50:10;;;;;;;7.43;4.53;;;;;;;22.29;54.81;92876.59;5069344;28;20046;-79
2021/09/11 09:52:37;;;;;;;7.53;4.40;;;;;;;22.78;52.98;92876.03;5066764;28;20047;-79
2021/09/11 09:55:04;;;;;;;12.98;4.72;;;;;;;21.70;57.94;92878.34;5070271;28;21350;-79
2021/09/11 09:57:30;;;;;;;10.32;4.72;;;;;;;21.22;57.20;92873.00;5069112;28;20075;-80
2021/09/11 09:59:58;;;;;;;7.50;4.03;;;;;;;21.96;52.42;92880.47;5072249;28;20048;-79
2021/09/11 10:02:24;;;;;;;9.00;4.88;;;;;;;22.30;53.95;92884.25;5089096;28;20032;-79
2021/09/11 10:04:50;;;;;;;7.18;4.03;;;;;;;22.62;53.46;92879.56;5071949;28;20032;-79
2021/09/11 10:07:21;;;;;;;8.18;4.55;;;;;;;21.91;52.98;92873.50;5090419;28;20162;-79
2021/09/11 10:09:48;;;;;;;6.30;3.78;;;;;;;22.12;53.94;92881.19;5089090;28;20036;-79
2021/09/11 10:12:41;;;;;;;7.82;4.25;;;;;;;22.33;52.08;92883.53;5075092;28;20031;-79
2021/09/11 10:15:29;;;;;;;5.95;3.17;;;;;;;22.29;53.21;92880.06;5056152;28;20069;-80
2021/09/11 10:17:56;;;;;;;6.40;3.78;;;;;;;22.15;52.67;92875.16;5069829;28;20036;-80
2021/09/11 10:20:23;;;;;;;5.47;3.42;;;;;;;21.51;52.98;92874.50;5075050;28;20039;-79
2021/09/11 10:23:12;;;;;;;6.35;4.40;;;;;;;21.79;53.50;92861.03;5074936;28;20036;-81
2021/09/11 10:25:45;;;;;;;6.20;3.45;;;;;;;21.77;54.90;92863.31;5074308;28;20032;-78
2021/09/11 10:28:15;;;;;;;8.32;4.38;;;;;;;22.11;52.98;92858.31;5072666;28;20123;-78
2021/09/11 10:31:12;;;;;;;6.80;4.28;;;;;;;21.44;54.02;92865.56;5077251;28;20032;-79
2021/09/11 10:33:41;;;;;;;6.03;3.70;;;;;;;21.32;55.13;92861.84;5076136;28;20071;-79
2021/09/11 10:36:43;;;;;;;6.03;4.03;;;;;;;21.71;50.16;92846.03;5075082;28;20044;-79
2021/09/11 10:39:10;;;;;;;5.53;3.67;;;;;;;22.22;53.58;92856.69;5073393;28;20393;-79
2021/09/11 10:41:36;;;;;;;7.28;4.75;;;;;;;21.99;52.62;92848.53;5060745;28;20040;-79
2021/09/11 10:44:08;;;;;;;8.98;4.93;;;;;;;22.46;50.58;92852.19;5079537;28;20028;-77
2021/09/11 10:46:48;;;;;;;4.40;2.83;;;;;;;22.13;51.80;92852.63;5079874;28;20041;-78
2021/09/11 10:49:30;;;;;;;6.60;4.22;;;;;;;22.22;52.58;92850.56;5076733;28;20028;-78
2021/09/11 10:52:11;;;;;;;7.90;5.00;;;;;;;22.41;51.47;92850.56;5074453;28;20068;-80
2021/09/11 10:54:38;;;;;;;6.30;3.88;;;;;;;22.51;50.21;92851.91;5075561;28;20037;-78
2021/09/11 10:57:06;;;;;;;6.43;3.70;;;;;;;22.40;51.03;92838.38;5074824;28;20035;-78
2021/09/11 10:59:34;;;;;;;7.68;4.30;;;;;;;22.70;50.27;92847.66;5067350;28;20048;-78
2021/09/11 11:02:10;;;;;;;8.32;3.60;;;;;;;22.72;50.35;92850.75;5066849;28;20029;-84
2021/09/11 11:04:49;;;;;;;5.97;3.53;;;;;;;22.72;50.16;92850.75;5074082;28;20036;-80
2021/09/11 11:07:22;;;;;;;5.18;3.20;;;;;;;22.44;50.57;92846.44;5074696;28;20102;-79
2021/09/11 11:09:50;;;;;;;5.57;3.63;;;;;;;22.44;49.68;92841.09;5070305;28;20024;-79
2021/09/11 11:12:30;;;;;;;6.13;3.92;;;;;;;23.20;48.66;92843.25;5072382;28;20093;-78
2021/09/11 11:15:03;;;;;;;6.43;4.07;;;;;;;22.88;48.88;92838.13;5070300;28;20052;-80
2021/09/11 11:17:29;;;;;;;4.32;2.80;;;;;;;23.09;47.63;92844.97;5068676;28;20043;-82
2021/09/11 11:19:56;;;;;;;6.68;3.63;;;;;;;23.02;46.45;92840.28;5080827;28;20482;-80
2021/09/11 11:22:38;;;;;;;5.57;3.83;;;;;;;23.03;48.57;92839.16;5077252;28;20040;-82
2021/09/11 11:25:07;;;;;;;5.20;2.83;;;;;;;22.26;49.26;92839.97;5060596;28;20515;-79
2021/09/11 11:27:33;;;;;;;6.13;4.05;;;;;;;23.02;48.25;92840.28;5072665;28;20034;-80
2021/09/11 11:30:01;;;;;;;5.22;3.33;;;;;;;23.36;45.71;92835.13;5075280;28;20052;-80
2021/09/11 11:32:29;;;;;;;5.53;3.47;;;;;;;23.33;46.67;92833.94;5076942;28;20032;-80
2021/09/11 11:34:59;;;;;;;5.18;3.00;;;;;;;23.23;45.55;92826.53;5069932;28;20074;-79
2021/09/11 11:37:30;;;;;;;6.40;3.80;;;;;;;22.82;47.23;92829.63;5072226;28;20024;-80
2021/09/11 11:39:59;;;;;;;4.72;3.10;;;;;;;22.77;48.44;92824.56;5075197;28;20398;-79
2021/09/11 11:42:27;;;;;;;6.45;3.25;;;;;;;23.16;47.58;92827.16;5075695;28;20031;-79
2021/09/11 11:44:54;;;;;;;6.50;3.63;;;;;;;23.32;44.44;92824.38;5075335;28;20059;-79
2021/09/11 11:48:00;;;;;;;6.55;3.65;;;;;;;23.43;43.56;92824.56;5076393;28;20040;-78
2021/09/11 11:50:30;;;;;;;6.53;3.17;;;;;;;23.48;44.82;92816.22;5028859;28;20407;-78
2021/09/11 11:53:21;;;;;;;4.03;2.63;;;;;;;23.13;45.98;92827.13;5050962;28;20407;-79
2021/09/11 11:55:52;;;;;;;7.05;4.05;;;;;;;23.79;44.88;92806.41;5062313;28;20047;-80
2021/09/11 11:58:24;;;;;;;6.53;3.88;;;;;;;24.06;45.39;92812.50;5067782;28;20073;-80
2021/09/11 12:00:55;;;;;;;5.80;3.38;;;;;;;24.33;45.28;92807.84;5069803;28;20072;-78
2021/09/11 12:03:39;;;;;;;6.95;4.07;;;;;;;23.93;44.89;92809.25;5071847;28;20394;-80
2021/09/11 12:06:08;;;;;;;8.48;3.97;;;;;;;24.10;44.12;92799.94;5080298;28;20043;-79
2021/09/11 12:08:37;;;;;;;5.97;4.05;;;;;;;24.21;46.30;92803.50;5063931;28;20520;-80
2021/09/11 12:11:03;;;;;;;6.00;3.88;;;;;;;24.08;45.28;92802.19;5078034;28;20047;-78
2021/09/11 12:13:30;;;;;;;5.57;3.38;;;;;;;23.35;47.26;92791.63;5070660;28;20398;-78
2021/09/11 12:15:56;;;;;;;7.10;4.30;;;;;;;23.49;46.73;92791.84;5071960;28;20117;-78
2021/09/11 12:18:22;;;;;;;6.53;3.88;;;;;;;23.71;45.26;92792.16;5069515;28;20476;-79
2021/09/11 12:20:50;;;;;;;6.45;3.88;;;;;;;23.67;45.81;92791.31;5068537;28;20049;-79
2021/09/11 12:23:19;;;;;;;6.38;4.00;;;;;;;24.54;45.33;92799.31;5070934;28;20401;-79
2021/09/11 12:26:08;;;;;;;7.78;4.05;;;;;;;23.77;46.60;92793.38;5071166;28;20025;-79
2021/09/11 12:28:45;;;;;;;7.72;3.97;;;;;;;24.58;45.65;92799.38;5069692;28;20105;-79
2021/09/11 12:31:10;;;;;;;6.88;4.10;;;;;;;24.34;45.07;92789.91;5071010;28;20060;-78
2021/09/11 12:33:46;;;;;;;6.18;3.55;;;;;;;23.75;45.40;92787.63;5069039;28;20062;-77
2021/09/11 12:36:27;;;;;;;6.85;4.47;;;;;;;23.48;45.72;92779.63;5070254;28;20032;-76
2021/09/11 12:38:54;;;;;;;7.70;3.33;;;;;;;24.06;47.00;92769.72;5063994;28;20028;-79
2021/09/11 12:41:21;;;;;;;7.75;4.50;;;;;;;23.71;45.55;92776.13;5069342;28;20025;-78
2021/09/11 12:43:47;;;;;;;7.75;4.30;;;;;;;23.83;46.47;92769.81;5066472;28;20044;-81
2021/09/11 12:46:29;;;;;;;6.00;3.90;;;;;;;23.46;45.83;92765.84;5057241;28;20052;-79
2021/09/11 12:48:55;;;;;;;;;;;;;;;23.72;45.83;92769.63;5072648;28;20032;-78
2021/09/11 12:51:21;;;;;;;5.55;3.35;;;;;;;23.95;46.86;92768.81;5074024;28;19912;-81
2021/09/11 12:53:47;;;;;;;7.03;4.22;;;;;;;23.54;46.41;92763.28;5073994;28;20383;-79
2021/09/11 12:56:12;;;;;;;9.80;4.32;;;;;;;23.89;47.38;92769.13;5071252;28;20040;-82
2021/09/11 12:58:38;;;;;;;7.22;4.30;;;;;;;24.00;45.96;92758.56;5051737;28;20040;-78
2021/09/11 13:01:04;;;;;;;7.75;4.75;;;;;;;23.93;46.56;92761.13;5076689;28;20044;-81
2021/09/11 13:03:29;;;;;;;5.53;3.55;;;;;;;23.67;47.01;92756.59;5077676;28;20125;-79
2021/09/11 13:05:55;;;;;;;6.05;3.95;;;;;;;23.75;46.41;92766.25;5072955;28;20021;-80
2021/09/11 13:08:20;;;;;;;4.38;2.30;;;;;;;23.34;46.51;92762.59;5072647;28;20067;-79
2021/09/11 13:10:47;;;;;;;8.02;4.18;;;;;;;23.58;45.69;92761.44;5070250;28;20086;-78
2021/09/11 13:13:13;;;;;;;8.02;3.97;;;;;;;23.85;46.79;92760.28;5057638;28;20033;-81
2021/09/11 13:15:38;;;;;;;5.95;3.70;;;;;;;24.09;46.61;92755.59;5077183;28;20029;-81
2021/09/11 13:18:04;;;;;;;8.40;4.60;;;;;;;23.65;46.33;92750.81;5066551;28;20497;-81
2021/09/11 13:20:30;;;;;;;6.93;3.97;;;;;;;23.97;45.41;92753.94;5081082;28;20062;-80
2021/09/11 13:22:55;;;;;;;7.40;4.38;;;;;;;23.74;47.12;92758.59;5081777;28;20382;-79
2021/09/11 13:25:21;;;;;;;4.88;3.15;;;;;;;23.78;46.81;92749.50;5084689;28;20025;-79
2021/09/11 13:27:47;;;;;;;7.05;3.85;;;;;;;24.09;47.64;92745.69;5091036;28;20054;-79
2021/09/11 13:30:13;;;;;;;8.02;4.85;;;;;;;24.10;47.26;92743.78;5087816;28;20412;-80
2021/09/11 13:32:39;;;;;;;6.97;4.07;;;;;;;23.46;48.17;92744.47;5082891;28;20165;-77
2021/09/11 13:35:05;;;;;;;7.72;4.05;;;;;;;23.82;48.97;92747.66;5088227;28;20461;-78
2021/09/11 13:37:31;;;;;;;8.80;4.30;;;;;;;23.75;48.79;92742.19;5086601;28;20040;-80
2021/09/11 13:39:57;;;;;;;6.63;4.05;;;;;;;24.12;47.67;92735.41;5075775;28;20046;-80
2021/09/11 13:42:22;;;;;;;5.35;3.65;;;;;;;23.38;48.55;92742.81;5086904;28;20039;-77
2021/09/11 13:44:49;;;;;;;5.32;3.72;;;;;;;23.75;48.21;92728.84;5084140;28;20478;-79
2021/09/11 13:47:17;;;;;;;8.68;4.38;;;;;;;23.64;49.05;92741.25;5082989;28;20048;-79
2021/09/11 13:49:43;;;;;;;5.15;3.20;;;;;;;23.47;47.82;92732.66;5074791;28;20169;-79
2021/09/11 13:52:09;;;;;;;9.52;4.60;;;;;;;23.98;46.91;92738.66;5082014;28;20051;-77
2021/09/11 13:54:35;;;;;;;7.43;3.85;;;;;;;23.76;48.58;92746.44;5079000;28;20028;-79
2021/09/11 13:57:01;;;;;;;9.98;4.00;;;;;;;23.55;48.58;92738.84;5082954;28;20079;-78
2021/09/11 13:59:27;;;;;;;8.98;3.97;;;;;;;23.96;47.49;92732.91;5082326;28;20052;-79
2021/09/11 14:01:52;;;;;;;7.97;4.70;;;;;;;23.59;49.01;92733.56;5071561;28;20144;-80
2021/09/11 14:04:18;;;;;;;6.78;4.18;;;;;;;24.01;48.17;92735.28;5073793;28;20048;-81
2021/09/11 14:06:44;;;;;;;6.28;4.10;;;;;;;23.87;47.63;92725.94;5072283;28;20050;-82
2021/09/11 14:09:09;;;;;;;5.22;3.33;;;;;;;23.40;49.15;92729.88;5069822;28;20039;-80
2021/09/11 14:11:35;;;;;;;6.70;3.90;;;;;;;23.55;48.97;92725.47;5069877;28;20024;-80
2021/09/11 14:14:01;;;;;;;7.00;4.20;;;;;;;24.25;48.24;92732.13;5073183;28;20024;-81
2021/09/11 14:16:28;;;;;;;6.18;3.25;;;;;;;23.77;48.63;92725.81;5065622;28;20040;-81
2021/09/11 14:18:54;;;;;;;6.30;4.20;;;;;;;23.49;49.45;92721.59;5072975;28;20075;-81
2021/09/11 14:21:19;;;;;;;7.50;4.40;;;;;;;24.12;49.01;92725.47;5070751;28;20505;-78
2021/09/11 14:23:45;;;;;;;6.00;3.75;;;;;;;24.19;48.35;92717.53;5074376;28;20059;-79
2021/09/11 14:26:10;;;;;;;6.35;3.85;;;;;;;24.24;46.79;92722.53;5073012;28;20036;-80
2021/09/11 14:28:39;;;;;;;8.85;4.85;;;;;;;23.49;49.83;92719.69;5074735;28;20116;-80
2021/09/11 14:31:05;;;;;;;7.65;4.50;;;;;;;23.88;48.91;92719.47;5063373;28;20041;-78
2021/09/11 14:33:31;;;;;;;7.55;3.58;;;;;;;23.57;48.83;92717.13;5075579;28;20043;-79
2021/09/11 14:35:57;;;;;;;5.88;3.67;;;;;;;23.33;50.38;92724.44;5076976;28;20410;-78
2021/09/11 14:38:22;;;;;;;7.60;4.25;;;;;;;23.49;49.40;92721.59;5073980;28;20067;-80
2021/09/11 14:40:48;;;;;;;7.40;4.20;;;;;;;23.23;50.07;92719.69;5066736;28;20500;-79
2021/09/11 14:43:14;;;;;;;7.13;3.65;;;;;;;23.48;49.46;92722.72;5073121;28;20029;-80
2021/09/11 14:45:39;;;;;;;8.20;4.78;;;;;;;23.76;49.13;92725.03;5071948;28;20098;-78
2021/09/11 14:48:06;;;;;;;6.72;4.05;;;;;;;23.73;48.45;92725.72;5071712;28;20033;-79
2021/09/11 14:50:31;;;;;;;8.95;4.75;;;;;;;23.77;49.08;92723.13;5072849;28;20069;-82
2021/09/11 14:52:57;;;;;;;7.03;4.00;;;;;;;23.42;49.47;92721.50;5071700;28;20955;-82
2021/09/11 14:55:23;;;;;;;9.57;4.70;;;;;;;23.46;49.76;92712.41;5072634;28;20121;-80
2021/09/11 14:57:50;;;;;;;6.65;4.13;;;;;;;23.52;49.89;92720.09;5070901;28;20032;-81
2021/09/11 15:00:16;;;;;;;5.82;3.58;;;;;;;23.74;48.87;92713.16;5069729;28;20049;-79
2021/09/11 15:02:41;;;;;;;6.57;4.53;;;;;;;23.51;49.85;92710.53;5072603;28;20032;-79
2021/09/11 15:05:07;;;;;;;6.93;4.40;;;;;;;23.67;47.87;92716.50;5073702;28;20040;-78
2021/09/11 15:07:33;;;;;;;7.25;4.57;;;;;;;23.85;47.48;92720.19;5072440;28;20040;-79
2021/09/11 15:10:02;;;;;;;5.35;3.50;;;;;;;23.73;48.95;92715.03;5071703;28;20043;-80
2021/09/11 15:12:28;;;;;;;5.75;3.42;;;;;;;23.88;47.01;92719.47;5071575;28;20035;-79
2021/09/11 15:14:55;;;;;;;6.75;4.30;;;;;;;23.40;49.00;92713.09;5071085;28;20035;-80
2021/09/11 15:17:21;;;;;;;6.88;4.35;;;;;;;23.48;47.96;92718.16;5072864;28;20398;-79
2021/09/11 15:19:46;;;;;;;8.68;4.60;;;;;;;23.60;48.72;92727.09;5074598;28;20040;-79
2021/09/11 15:22:16;;;;;;;8.07;4.82;;;;;;;23.60;48.40;92727.09;5063211;28;20058;-78
2021/09/11 15:24:44;;;;;;;6.80;4.13;;;;;;;23.75;48.19;92731.50;5074965;28;20040;-80
2021/09/11 15:27:10;;;;;;;6.07;3.67;;;;;;;23.62;48.17;92724.81;5064787;28;20062;-83
2021/09/11 15:29:35;;;;;;;6.30;3.97;;;;;;;23.63;48.09;92726.38;5066971;28;20440;-80
2021/09/11 15:32:02;;;;;;;6.93;4.43;;;;;;;23.44;49.87;92722.69;5067419;28;20063;-79
2021/09/11 15:34:27;;;;;;;7.05;4.50;;;;;;;23.37;49.48;92729.81;5068850;28;20040;-80
2021/09/11 15:36:54;;;;;;;7.90;4.40;;;;;;;23.46;49.51;92723.09;5059809;28;20543;-76
2021/09/11 15:39:20;;;;;;;8.00;4.47;;;;;;;23.74;49.38;92719.25;5066874;28;20127;-78
2021/09/11 15:41:46;;;;;;;7.35;4.63;;;;;;;23.81;48.29;92721.28;5071211;28;20034;-77
2021/09/11 15:44:12;;;;;;;9.07;5.13;;;;;;;23.40;49.73;92719.19;5072714;28;20049;-77
2021/09/11 15:46:42;;;;;;;7.43;4.93;;;;;;;23.65;51.33;92729.44;5060265;28;20032;-77
2021/09/11 15:49:08;;;;;;;8.63;4.90;;;;;;;23.99;48.89;92732.19;5071503;28;20119;-77
2021/09/11 15:51:34;;;;;;;7.75;4.45;;;;;;;23.84;47.65;92726.66;5072034;28;20047;-77
2021/09/11 15:53:59;;;;;;;8.13;4.50;;;;;;;23.60;49.26;92727.88;5070168;28;20036;-77
2021/09/11 15:56:25;;;;;;;9.40;4.82;;;;;;;23.97;49.15;92729.09;5061529;28;20115;-77
2021/09/11 15:58:51;;;;;;;8.10;4.68;;;;;;;24.18;47.54;92728.56;5065945;28;20149;-76
2021/09/11 16:01:17;;;;;;;12.40;4.95;;;;;;;24.10;47.73;92730.41;5061760;28;20076;-78
2021/09/11 16:03:42;;;;;;;8.27;5.10;;;;;;;23.82;49.05;92725.47;5070917;28;20048;-77
2021/09/11 16:06:09;;;;;;;7.20;4.97;;;;;;;23.93;50.41;92726.38;5061365;28;20029;-77
2021/09/11 16:08:35;;;;;;;8.02;4.80;;;;;;;23.63;49.54;92721.78;5064366;28;20028;-79
2021/09/11 16:11:01;;;;;;;6.60;4.25;;;;;;;23.34;49.18;92722.53;5048434;28;20099;-77
2021/09/11 16:13:27;;;;;;;8.18;4.55;;;;;;;23.50;48.68;92720.47;5061970;28;20044;-78
2021/09/11 16:15:53;;;;;;;8.45;4.32;;;;;;;23.43;50.03;92717.69;5067406;28;20036;-78
2021/09/11 16:18:18;;;;;;;7.15;4.70;;;;;;;22.98;54.36;92720.06;5050947;28;20094;-77
2021/09/11 16:20:44;;;;;;;7.60;4.35;;;;;;;23.33;52.75;92724.44;5063457;28;20082;-80
2021/09/11 16:23:11;;;;;;;6.85;4.97;;;;;;;23.45;50.78;92718.09;5070367;28;20116;-78
2021/09/11 16:25:37;;;;;;;7.18;4.45;;;;;;;23.58;51.35;92726.69;5066254;28;20074;-77
2021/09/11 16:28:04;;;;;;;8.20;4.80;;;;;;;23.56;51.69;92720.94;5062354;28;20390;-77
2021/09/11 16:30:30;;;;;;;7.00;4.45;;;;;;;23.51;51.64;92726.56;5070763;28;20040;-79
2021/09/11 16:32:56;;;;;;;7.13;4.55;;;;;;;23.34;51.99;92725.97;5068448;28;20032;-77
2021/09/11 16:35:21;;;;;;;8.90;4.88;;;;;;;23.15;51.95;92721.50;5053119;28;20033;-78
2021/09/11 16:37:48;;;;;;;6.15;4.10;;;;;;;22.98;52.78;92728.06;5063112;28;20028;-78
2021/09/11 16:40:15;;;;;;;8.52;4.70;;;;;;;22.78;53.73;92721.28;5066260;28;20101;-77
2021/09/11 16:42:41;;;;;;;7.97;4.85;;;;;;;22.65;54.69;92721.47;5064387;28;20401;-78
2021/09/11 16:45:07;;;;;;;8.15;4.47;;;;;;;22.48;55.21;92727.25;5059757;28;20047;-78
2021/09/11 16:47:33;;;;;;;6.90;4.18;;;;;;;22.31;56.21;92733.03;5058753;28;20033;-77
2021/09/11 16:49:59;;;;;;;6.45;4.32;;;;;;;22.14;56.77;92743.00;5067137;28;20044;-77
2021/09/11 16:52:25;;;;;;;7.78;4.65;;;;;;;22.00;57.33;92732.06;5065723;28;20127;-77
2021/09/11 16:54:52;;;;;;;7.90;5.20;;;;;;;21.85;57.66;92728.31;5070957;28;20376;-80
2021/09/11 16:57:18;;;;;;;8.75;4.78;;;;;;;21.72;57.89;92729.59;5063537;28;20370;-78
2021/09/11 16:59:44;;;;;;;7.55;4.63;;;;;;;21.56;57.94;92727.72;5061660;28;20068;-81
2021/09/11 17:02:10;;;;;;;7.57;4.72;;;;;;;21.49;58.46;92729.50;5069588;28;20054;-79
2021/09/11 17:04:36;;;;;;;7.38;4.38;;;;;;;21.35;58.75;92733.34;5076078;28;20123;-78
2021/09/11 17:07:02;;;;;;;10.85;5.40;;;;;;;21.24;58.90;92728.91;5075166;28;20394;-79
2021/09/11 17:09:28;;;;;;;6.80;4.40;;;;;;;21.09;59.33;92738.47;5075660;28;20028;-78
2021/09/11 17:11:53;;;;;;;10.70;4.90;;;;;;;20.99;59.68;92739.75;5054569;28;20082;-78
2021/09/11 17:14:19;;;;;;;9.40;4.85;;;;;;;20.88;60.06;92739.50;5079629;28;20040;-78
2021/09/11 17:16:45;;;;;;;5.72;3.97;;;;;;;20.75;60.72;92746.03;5076353;28;20080;-80
2021/09/11 17:19:10;;;;;;;9.63;5.20;;;;;;;20.67;61.00;92739.75;5069833;28;20040;-79
2021/09/11 17:21:36;;;;;;;6.57;4.55;;;;;;;20.56;61.37;92746.69;5061710;28;20032;-81
2021/09/11 17:24:03;;;;;;;9.52;4.70;;;;;;;20.41;61.91;92742.88;5080848;28;20047;-80
2021/09/11 17:26:29;;;;;;;7.15;5.05;;;;;;;20.33;61.83;92749.09;5084854;28;20043;-79